Time;durP1;ratioP1;P1;durP2;ratioP2;P2;SDS_P1;SDS_P2;PMS_P1;PMS_P2;Temp;Humidity;BMP_temperature;BMP_pressure;BME280_temperature;BME280_humidity;BME280_pressure;Samples;Min_cycle;Max_cycle;Signal;HPM_P1;HPM_P2
2023/02/01 00:02:49;;;;;;;17.13;2.53;;;4.30;99.90;;;;;;15203512;23;20332;-37
2023/02/01 00:08:55;;;;;;;21.25;3.58;;;4.30;99.90;;;;;;15178617;23;20347;-37
2023/02/01 00:14:57;;;;;;;32.03;3.60;;;4.20;99.90;;;;;;15202939;23;20388;-36
2023/02/01 00:21:00;;;;;;;18.58;3.20;;;4.20;99.90;;;;;;15204293;23;20026;-37
2023/02/01 00:27:02;;;;;;;20.35;3.25;;;4.20;99.90;;;;;;15179717;23;20473;-37
2023/02/01 00:33:04;;;;;;;19.65;2.75;;;4.10;99.90;;;;;;15202772;23;20033;-37
2023/02/01 00:39:06;;;;;;;16.35;2.47;;;4.10;99.90;;;;;;15203791;23;20026;-37
2023/02/01 00:45:09;;;;;;;17.50;3.15;;;4.10;99.90;;;;;;15202846;23;20038;-37
2023/02/01 00:51:14;;;;;;;19.38;3.88;;;4.10;99.90;;;;;;15200101;23;20032;-36
2023/02/01 00:57:16;;;;;;;18.50;2.72;;;4.10;99.90;;;;;;15201893;23;20109;-37
2023/02/01 01:03:18;;;;;;;17.50;3.33;;;4.00;99.90;;;;;;15203874;23;20030;-36
2023/02/01 01:09:20;;;;;;;19.00;3.00;;;4.10;99.90;;;;;;15198951;23;20462;-36
2023/02/01 01:15:22;;;;;;;21.90;3.03;;;4.10;99.90;;;;;;15201909;23;20459;-36
2023/02/01 01:21:26;;;;;;;19.23;3.08;;;4.20;99.90;;;;;;15199121;23;20158;-37
2023/02/01 01:27:28;;;;;;;16.38;3.10;;;4.10;99.90;;;;;;15199727;23;20026;-37
2023/02/01 01:33:30;;;;;;;21.85;3.42;;;4.10;99.90;;;;;;15200789;23;20120;-36
2023/02/01 01:39:32;;;;;;;18.42;2.63;;;4.00;99.90;;;;;;15174121;23;20021;-36
2023/02/01 01:45:35;;;;;;;17.67;3.05;;;4.00;99.90;;;;;;15202231;23;20033;-37
2023/02/01 01:52:00;;;;;;;13.45;2.53;;;4.00;99.90;;;;;;15203340;23;20065;-37
2023/02/01 01:58:08;;;;;;;17.30;2.42;;;4.10;99.90;;;;;;15174185;23;20057;-37
2023/02/01 02:04:10;;;;;;;17.63;2.63;;;4.10;99.90;;;;;;15177381;23;20471;-36
2023/02/01 02:10:13;;;;;;;18.70;2.53;;;4.10;99.90;;;;;;15200921;23;20029;-36
2023/02/01 02:16:42;;;;;;;17.80;3.00;;;4.20;99.90;;;;;;15202193;23;20469;-36
2023/02/01 02:22:48;;;;;;;15.57;2.53;;;4.30;99.90;;;;;;15181185;23;20029;-37
2023/02/01 02:28:53;;;;;;;18.17;2.55;;;4.30;99.90;;;;;;15206023;23;20033;-36
2023/02/01 02:35:07;;;;;;;17.15;2.35;;;4.40;99.90;;;;;;15179492;23;20022;-36
2023/02/01 02:47:46;;;;;;;19.88;2.50;;;4.40;99.90;;;;;;15207431;23;20414;-37
2023/02/01 03:06:53;;;;;;;18.33;3.28;;;4.70;99.90;;;;;;15203078;23;20033;-37
2023/02/01 03:13:05;;;;;;;22.25;3.65;;;4.70;99.90;;;;;;15206011;23;20073;-37
2023/02/01 03:19:24;;;;;;;16.58;2.83;;;4.80;99.90;;;;;;15204673;23;20022;-36
2023/02/01 03:25:30;;;;;;;18.60;3.63;;;4.70;99.90;;;;;;15202767;23;20089;-37
2023/02/01 03:31:32;;;;;;;17.75;3.25;;;4.80;99.90;;;;;;15203453;23;20351;-37
2023/02/01 03:37:35;;;;;;;18.45;3.60;;;4.80;99.90;;;;;;15205921;23;20044;-37
2023/02/01 03:44:00;;;;;;;19.73;3.03;;;4.80;99.90;;;;;;15204928;23;20160;-36
2023/02/01 03:50:08;;;;;;;14.35;2.75;;;4.80;99.90;;;;;;15204372;23;20026;-37
2023/02/01 03:56:11;;;;;;;16.35;3.28;;;4.80;99.90;;;;;;15205533;23;20022;-37
2023/02/01 04:02:13;;;;;;;12.50;3.05;;;4.90;99.90;;;;;;15204202;23;20336;-37
2023/02/01 04:08:16;;;;;;;18.20;2.63;;;4.90;99.90;;;;;;15200313;23;20141;-36
2023/02/01 04:14:18;;;;;;;15.88;2.88;;;5.00;99.90;;;;;;15201881;23;20159;-36
2023/02/01 04:20:21;;;;;;;21.85;3.20;;;5.00;99.90;;;;;;15204690;23;20343;-36
2023/02/01 04:26:24;;;;;;;17.45;3.40;;;5.00;99.90;;;;;;15202647;23;20036;-36
2023/02/01 04:32:26;;;;;;;20.38;2.83;;;5.00;99.90;;;;;;15177812;23;20100;-37
2023/02/01 04:38:29;;;;;;;16.67;3.17;;;5.00;99.90;;;;;;15203147;23;20028;-37
2023/02/01 04:44:31;;;;;;;21.92;2.90;;;5.00;99.90;;;;;;15201036;23;20037;-36
2023/02/01 04:50:33;;;;;;;19.35;2.90;;;5.00;99.90;;;;;;15202578;23;20344;-36
2023/02/01 04:56:36;;;;;;;12.27;2.05;;;4.90;99.90;;;;;;15203804;23;20524;-36
2023/02/01 05:02:38;;;;;;;13.52;2.42;;;4.90;99.90;;;;;;15202641;23;20025;-36
2023/02/01 05:08:40;;;;;;;21.20;3.58;;;4.90;99.90;;;;;;15202363;23;20026;-36
2023/02/01 05:14:42;;;;;;;21.55;3.40;;;4.80;99.90;;;;;;15174421;23;20018;-37
2023/02/01 05:20:44;;;;;;;19.73;2.78;;;4.90;99.90;;;;;;15201159;23;20380;-36
2023/02/01 05:26:48;;;;;;;22.40;2.78;;;4.80;99.90;;;;;;15175774;23;20022;-36
2023/02/01 05:32:52;;;;;;;21.60;3.57;;;4.80;99.90;;;;;;15174600;23;20029;-36
2023/02/01 05:38:54;;;;;;;15.40;2.83;;;4.80;99.90;;;;;;15199463;23;20809;-36
2023/02/01 05:44:56;;;;;;;16.48;2.78;;;4.70;99.90;;;;;;15201727;23;20467;-36
2023/02/01 05:50:58;;;;;;;17.52;3.13;;;4.70;99.90;;;;;;15171876;23;20026;-37
2023/02/01 05:57:00;;;;;;;16.92;2.30;;;4.70;99.90;;;;;;15194368;23;20052;-36
2023/02/01 06:03:02;;;;;;;10.43;2.10;;;4.60;99.90;;;;;;15197769;23;20033;-36
2023/02/01 06:09:05;;;;;;;17.15;2.70;;;4.60;99.90;;;;;;15175675;23;20026;-37
2023/02/01 06:15:08;;;;;;;16.70;2.83;;;4.50;99.90;;;;;;15197644;23;20476;-37
2023/02/01 06:21:10;;;;;;;17.20;2.60;;;4.60;99.90;;;;;;15200021;23;20045;-36
2023/02/01 06:27:13;;;;;;;25.63;3.15;;;4.70;99.90;;;;;;15198887;23;20421;-36
2023/02/01 06:33:15;;;;;;;11.55;2.17;;;4.80;99.90;;;;;;15195069;23;20097;-36
2023/02/01 06:39:17;;;;;;;19.98;2.60;;;4.80;99.90;;;;;;15197358;23;20022;-36
2023/02/01 06:45:19;;;;;;;18.45;2.55;;;4.80;99.90;;;;;;15198650;23;20037;-37
2023/02/01 06:51:24;;;;;;;17.27;2.78;;;4.80;99.90;;;;;;15169526;23;20019;-37
2023/02/01 06:57:30;;;;;;;;;;;4.90;99.90;;;;;;15197723;23;20029;-37
2023/02/01 07:03:32;;;;;;;21.95;3.50;;;4.90;99.90;;;;;;15197562;23;20372;-37
2023/02/01 07:09:34;;;;;;;16.25;2.95;;;4.90;99.90;;;;;;15176172;23;20077;-37
2023/02/01 07:15:36;;;;;;;10.82;2.53;;;5.00;99.90;;;;;;15199043;23;20387;-36
2023/02/01 07:21:38;;;;;;;16.85;2.60;;;5.00;99.90;;;;;;15200859;23;20109;-36
2023/02/01 07:27:40;;;;;;;16.88;3.60;;;5.10;99.90;;;;;;15206386;23;20093;-36
2023/02/01 07:33:42;;;;;;;15.85;2.35;;;5.10;99.90;;;;;;15176537;23;20350;-36
2023/02/01 07:39:45;;;;;;;17.95;3.45;;;5.20;99.90;;;;;;15197259;23;20022;-36
2023/02/01 07:45:52;;;;;;;12.63;2.42;;;5.20;99.90;;;;;;15188392;23;20029;-36
2023/02/01 07:51:54;;;;;;;18.35;2.28;;;5.30;99.90;;;;;;15198220;23;20021;-36
2023/02/01 07:57:58;;;;;;;18.67;2.55;;;5.30;99.90;;;;;;15196942;23;20342;-37
2023/02/01 08:04:02;;;;;;;14.43;2.83;;;5.30;99.90;;;;;;15196530;23;20482;-36
2023/02/01 08:10:10;;;;;;;14.63;2.17;;;5.40;99.90;;;;;;15199634;23;20486;-37
2023/02/01 08:16:14;;;;;;;12.80;2.63;;;5.40;99.90;;;;;;15139420;23;20025;-37
2023/02/01 08:22:16;;;;;;;17.40;2.95;;;5.50;99.90;;;;;;15172850;23;20404;-36
2023/02/01 08:28:18;;;;;;;24.67;2.88;;;5.30;99.90;;;;;;15204289;23;20022;-36
2023/02/01 08:34:20;;;;;;;15.55;2.58;;;5.10;99.90;;;;;;15196556;23;20387;-36
2023/02/01 08:40:22;;;;;;;15.60;2.67;;;5.10;99.90;;;;;;15201979;23;20097;-37
2023/02/01 08:46:25;;;;;;;17.08;2.67;;;5.30;99.90;;;;;;15173738;23;20022;-37
2023/02/01 08:52:27;;;;;;;19.02;3.60;;;5.40;99.90;;;;;;15193601;23;20029;-37
2023/02/01 08:58:29;;;;;;;13.02;2.45;;;5.50;99.90;;;;;;15194092;23;20026;-36
2023/02/01 09:04:32;;;;;;;11.77;2.05;;;5.60;99.90;;;;;;15165788;23;20030;-37
2023/02/01 09:10:36;;;;;;;12.50;2.67;;;5.60;99.90;;;;;;15199229;23;20021;-36
2023/02/01 09:16:39;;;;;;;20.73;2.72;;;5.60;99.90;;;;;;15175061;23;20100;-36
2023/02/01 09:22:41;;;;;;;18.98;3.65;;;5.70;99.90;;;;;;15201337;23;20025;-37
2023/02/01 09:28:43;;;;;;;23.05;3.38;;;5.80;99.90;;;;;;15200123;23;20029;-36
2023/02/01 09:34:45;;;;;;;17.50;3.80;;;5.80;99.90;;;;;;15196505;23;20161;-36
2023/02/01 09:40:47;;;;;;;20.00;2.53;;;5.90;99.90;;;;;;15201557;23;20018;-36
2023/02/01 09:46:54;;;;;;;14.10;2.38;;;6.00;99.90;;;;;;15203020;23;20026;-36
2023/02/01 09:53:10;;;;;;;12.27;2.50;;;6.10;99.90;;;;;;15200296;23;20418;-36
2023/02/01 09:59:21;;;;;;;13.18;2.92;;;6.10;99.90;;;;;;15197835;23;20455;-36
2023/02/01 10:05:49;;;;;;;11.25;1.75;;;6.20;99.90;;;;;;15192183;23;20034;-36
2023/02/01 10:12:13;;;;;;;16.60;2.63;;;6.20;99.90;;;;;;15197465;23;20096;-36
2023/02/01 10:18:52;;;;;;;20.63;2.53;;;6.20;99.90;;;;;;15201308;23;20471;-36
2023/02/01 10:25:28;;;;;;;13.98;3.28;;;6.20;99.90;;;;;;15198562;23;20034;-36
2023/02/01 10:31:37;;;;;;;16.30;2.50;;;6.20;99.90;;;;;;15162318;23;20038;-36
2023/02/01 10:37:41;;;;;;;14.77;2.03;;;6.10;99.90;;;;;;15201142;23;20100;-37
2023/02/01 10:43:45;;;;;;;12.50;2.38;;;6.10;99.90;;;;;;15202125;23;20032;-35
2023/02/01 10:50:01;;;;;;;16.85;2.97;;;6.10;99.90;;;;;;15176547;23;20360;-36
2023/02/01 10:56:08;;;;;;;18.85;2.70;;;6.10;99.90;;;;;;15200189;23;20053;-37
2023/02/01 11:02:29;;;;;;;15.65;2.35;;;6.10;99.90;;;;;;15175164;23;20073;-37
2023/02/01 11:08:32;;;;;;;14.82;2.30;;;6.10;99.90;;;;;;15198791;23;20108;-37
2023/02/01 11:14:39;;;;;;;12.82;2.17;;;6.10;99.90;;;;;;15176167;23;20457;-37
2023/02/01 11:20:43;;;;;;;10.95;2.45;;;6.10;99.90;;;;;;15201813;23;20029;-37
2023/02/01 11:26:45;;;;;;;12.93;2.30;;;6.20;99.90;;;;;;15187359;23;20030;-37
2023/02/01 11:32:50;;;;;;;19.13;2.60;;;6.20;99.90;;;;;;15201520;23;20018;-37
2023/02/01 11:39:06;;;;;;;14.30;2.33;;;6.20;99.90;;;;;;15203593;23;20100;-36
2023/02/01 11:45:28;;;;;;;13.57;2.35;;;6.20;99.90;;;;;;15204237;23;20344;-38
2023/02/01 11:51:37;;;;;;;18.25;2.95;;;6.20;99.90;;;;;;15198584;23;20104;-37
2023/02/01 11:58:11;;;;;;;12.88;1.95;;;6.30;99.90;;;;;;15203933;23;20478;-37
2023/02/01 12:04:35;;;;;;;12.47;3.07;;;6.20;99.90;;;;;;15092266;23;20033;-36
2023/02/01 12:11:04;;;;;;;13.73;1.90;;;6.10;99.90;;;;;;15203074;23;20447;-37
2023/02/01 12:17:32;;;;;;;8.80;1.80;;;6.10;99.90;;;;;;15203136;23;20022;-37
2023/02/01 12:23:40;;;;;;;8.05;2.15;;;5.80;99.90;;;;;;15201764;23;20061;-37
2023/02/01 12:30:01;;;;;;;8.75;2.42;;;5.60;99.90;;;;;;15175796;23;20030;-37
2023/02/01 12:36:15;;;;;;;12.98;1.55;;;5.50;99.90;;;;;;15203369;23;20064;-37
2023/02/01 12:42:32;;;;;;;9.45;1.80;;;5.50;99.90;;;;;;15201006;23;20451;-36
2023/02/01 12:48:42;;;;;;;8.07;1.75;;;5.40;99.90;;;;;;15176729;23;20036;-37
2023/02/01 12:55:00;;;;;;;8.05;2.08;;;5.30;99.90;;;;;;15198986;23;20022;-37
2023/02/01 13:01:08;;;;;;;11.18;2.00;;;5.20;99.90;;;;;;15197682;23;20257;-37
2023/02/01 13:07:27;;;;;;;7.88;2.10;;;5.20;99.90;;;;;;15123792;23;20158;-37
2023/02/01 13:13:38;;;;;;;9.23;1.92;;;5.20;99.90;;;;;;15129306;23;20018;-37
2023/02/01 13:20:20;;;;;;;5.40;1.92;;;5.20;99.90;;;;;;15130843;23;20101;-37
2023/02/01 13:26:23;;;;;;;8.13;2.60;;;5.20;99.90;;;;;;15051288;23;20026;-36
2023/02/01 13:32:47;;;;;;;10.52;2.78;;;5.20;99.90;;;;;;15107119;23;20625;-83
2023/02/01 13:39:57;;;;;;;10.63;2.40;;;5.30;99.90;;;;;;15139285;23;20022;-85
2023/02/01 13:46:16;;;;;;;13.18;2.33;;;5.30;99.90;;;;;;15129359;23;20113;-35
2023/02/01 13:59:37;;;;;;;7.30;1.80;;;5.20;99.90;;;;;;15011857;23;20455;-88
2023/02/01 14:05:39;;;;;;;9.25;1.90;;;4.70;99.90;;;;;;15029732;23;20097;-87
2023/02/01 14:11:48;;;;;;;11.75;2.20;;;4.70;99.90;;;;;;15032401;23;20027;-87
2023/02/01 14:17:50;;;;;;;14.52;3.17;;;4.70;99.90;;;;;;15041338;23;20026;-87
2023/02/01 14:23:52;;;;;;;11.57;2.33;;;4.90;99.90;;;;;;15032786;23;20026;-86
2023/02/01 14:29:59;;;;;;;11.55;2.30;;;5.10;99.90;;;;;;15035196;23;20098;-86
2023/02/01 14:36:09;;;;;;;10.10;2.03;;;5.30;99.90;;;;;;15037790;23;20029;-87
2023/02/01 14:42:24;;;;;;;14.13;2.30;;;5.30;99.90;;;;;;15038337;23;20058;-86
2023/02/01 14:48:26;;;;;;;14.20;2.05;;;5.50;99.90;;;;;;15031075;23;20086;-87
2023/02/01 14:54:29;;;;;;;14.82;2.30;;;5.70;99.90;;;;;;15016701;23;20027;-87
2023/02/01 15:00:31;;;;;;;11.10;1.83;;;5.90;99.90;;;;;;14919422;23;20030;-86
2023/02/01 15:06:45;;;;;;;11.40;1.58;;;6.00;99.90;;;;;;14918078;23;20102;-87
2023/02/01 15:12:49;;;;;;;7.50;1.38;;;5.90;99.90;;;;;;14918313;23;20079;-86
2023/02/01 15:19:07;;;;;;;15.25;3.35;;;5.90;99.90;;;;;;14924364;23;20015;-88
2023/02/01 15:25:23;;;;;;;11.52;1.45;;;5.80;99.90;;;;;;14919074;23;20548;-86
2023/02/01 15:31:58;;;;;;;7.32;1.42;;;5.80;99.90;;;;;;14922586;23;20031;-87
2023/02/01 15:38:28;;;;;;;11.00;1.38;;;5.80;99.90;;;;;;14869924;23;20031;-86
2023/02/01 15:44:38;;;;;;;7.28;2.28;;;5.80;99.90;;;;;;14920596;23;20520;-86
2023/02/01 15:50:40;;;;;;;7.70;1.58;;;5.70;99.90;;;;;;14922760;23;20020;-86
2023/02/01 15:56:42;;;;;;;7.35;1.50;;;5.70;99.90;;;;;;14921870;23;20095;-86
2023/02/01 16:02:57;;;;;;;14.50;1.88;;;5.80;99.90;;;;;;14966620;23;20027;-87
2023/02/01 16:08:59;;;;;;;13.25;1.65;;;5.80;99.90;;;;;;14972060;23;20456;-86
2023/02/01 16:15:03;;;;;;;12.57;1.70;;;5.70;99.90;;;;;;14996606;23;20098;-87
2023/02/01 16:21:07;;;;;;;11.93;2.90;;;5.70;99.90;;;;;;14971580;23;20023;-87
2023/02/01 16:27:09;;;;;;;17.27;2.60;;;5.60;99.90;;;;;;14995028;23;20345;-86
2023/02/01 16:33:19;;;;;;;10.65;1.77;;;5.70;99.90;;;;;;14998981;23;20011;-87
2023/02/01 16:39:21;;;;;;;15.45;2.30;;;5.70;99.90;;;;;;15024775;23;20011;-87
2023/02/01 16:45:23;;;;;;;15.63;2.15;;;5.70;99.90;;;;;;15027544;23;20039;-85
2023/02/01 16:51:31;;;;;;;11.43;1.83;;;5.70;99.90;;;;;;15020794;23;20027;-86
2023/02/01 16:57:33;;;;;;;9.65;1.58;;;5.70;99.90;;;;;;15018120;23;20027;-86
2023/02/01 17:03:35;;;;;;;7.53;1.35;;;5.60;99.90;;;;;;15046379;23;20015;-86
2023/02/01 17:09:39;;;;;;;10.02;2.00;;;5.50;99.90;;;;;;15026255;23;20011;-87
2023/02/01 17:15:49;;;;;;;11.75;2.20;;;5.50;99.90;;;;;;15047155;23;20011;-86
2023/02/01 17:21:58;;;;;;;13.40;2.78;;;5.40;99.90;;;;;;15022739;23;20038;-86
2023/02/01 17:28:00;;;;;;;17.00;2.67;;;5.50;99.90;;;;;;15020015;23;20038;-86
2023/02/01 17:34:02;;;;;;;20.42;2.63;;;5.50;99.90;;;;;;15014057;23;20448;-84
2023/02/01 17:40:04;;;;;;;19.77;2.55;;;5.50;99.90;;;;;;15011998;23;20030;-87
2023/02/01 17:46:13;;;;;;;13.38;2.22;;;5.60;99.90;;;;;;15002271;23;20051;-85
2023/02/01 17:52:17;;;;;;;19.45;2.80;;;5.60;99.90;;;;;;14972439;23;20031;-86
2023/02/01 17:58:20;;;;;;;13.70;2.47;;;5.50;99.90;;;;;;14973654;23;20030;-85
2023/02/01 18:04:22;;;;;;;13.18;2.97;;;5.50;99.90;;;;;;14904375;23;20030;-86
2023/02/01 18:10:24;;;;;;;14.02;2.17;;;5.50;99.90;;;;;;14907544;23;20019;-86
2023/02/01 18:16:28;;;;;;;20.15;3.38;;;5.60;99.90;;;;;;14907959;23;20027;-86
2023/02/01 18:22:30;;;;;;;13.43;2.45;;;5.50;99.90;;;;;;14901160;23;20027;-86
2023/02/01 18:28:32;;;;;;;17.15;3.85;;;5.50;99.90;;;;;;14904587;23;20016;-86
2023/02/01 18:34:34;;;;;;;14.90;2.55;;;5.50;99.90;;;;;;14902913;23;20071;-85
2023/02/01 18:40:57;;;;;;;21.80;2.90;;;5.40;99.90;;;;;;14901927;23;20020;-85
2023/02/01 18:46:59;;;;;;;16.75;2.65;;;5.40;99.90;;;;;;14923231;23;20060;-86
2023/02/01 18:53:03;;;;;;;14.27;2.40;;;5.40;99.90;;;;;;14921209;23;20142;-87
2023/02/01 18:59:05;;;;;;;16.77;2.58;;;5.40;99.90;;;;;;14899127;23;20089;-87
2023/02/01 19:05:09;;;;;;;9.85;2.13;;;5.30;99.90;;;;;;14900709;23;20027;-86
2023/02/01 19:11:11;;;;;;;15.57;2.13;;;5.30;99.90;;;;;;14905046;23;20707;-87
2023/02/01 19:17:13;;;;;;;11.80;2.30;;;5.30;99.90;;;;;;14905611;23;20020;-86
2023/02/01 19:23:19;;;;;;;14.45;2.22;;;5.40;99.90;;;;;;14921383;23;20034;-86
2023/02/01 19:29:21;;;;;;;15.10;2.03;;;5.40;99.90;;;;;;14899572;23;20108;-85
2023/02/01 19:35:23;;;;;;;11.80;2.28;;;5.50;99.90;;;;;;14896515;23;20020;-85
2023/02/01 19:41:26;;;;;;;15.40;2.75;;;5.50;99.90;;;;;;14896351;23;20124;-86
2023/02/01 19:47:28;;;;;;;20.38;2.65;;;5.50;99.90;;;;;;14895156;23;20075;-86
2023/02/01 19:53:29;;;;;;;15.50;3.22;;;5.60;99.90;;;;;;14894298;23;20031;-86
2023/02/01 19:59:31;;;;;;;15.38;2.58;;;5.60;99.90;;;;;;14893704;23;20472;-86
2023/02/01 20:05:34;;;;;;;16.20;2.30;;;5.60;99.90;;;;;;14922545;23;20115;-86
2023/02/01 20:11:35;;;;;;;15.30;2.47;;;5.40;99.90;;;;;;14873199;23;20034;-85
2023/02/01 20:17:37;;;;;;;13.65;1.95;;;5.50;99.90;;;;;;14899369;23;20015;-87
2023/02/01 20:23:40;;;;;;;12.65;2.28;;;5.50;99.90;;;;;;14896661;23;20434;-85
2023/02/01 20:29:42;;;;;;;19.48;2.30;;;5.50;99.90;;;;;;14916514;23;20449;-86
2023/02/01 20:35:44;;;;;;;18.25;2.92;;;5.40;99.90;;;;;;14891616;23;20356;-86
2023/02/01 20:41:46;;;;;;;18.75;3.10;;;5.40;99.90;;;;;;14896000;23;20027;-87
2023/02/01 20:47:50;;;;;;;11.55;2.05;;;5.30;99.90;;;;;;14924211;23;20030;-87
2023/02/01 20:53:51;;;;;;;15.63;2.90;;;5.30;99.90;;;;;;14894016;23;20056;-87
2023/02/01 20:59:56;;;;;;;16.27;2.53;;;5.30;99.90;;;;;;14914089;23;20099;-86
2023/02/01 21:05:59;;;;;;;18.08;2.78;;;5.40;99.90;;;;;;14892947;23;20398;-86
2023/02/01 21:12:01;;;;;;;14.88;2.83;;;5.40;99.90;;;;;;14892285;23;20569;-85
2023/02/01 21:18:05;;;;;;;15.57;2.20;;;5.30;99.90;;;;;;14897053;23;20024;-87
2023/02/01 21:24:07;;;;;;;17.73;2.40;;;5.30;99.90;;;;;;14886148;23;20087;-86
2023/02/01 21:30:10;;;;;;;18.65;2.85;;;5.30;99.90;;;;;;14887306;23;20247;-86
2023/02/01 21:36:17;;;;;;;19.15;2.40;;;5.40;99.90;;;;;;14893709;23;20023;-85
2023/02/01 21:42:20;;;;;;;14.43;2.08;;;5.40;99.90;;;;;;14887662;23;20103;-86
2023/02/01 21:48:22;;;;;;;13.25;2.03;;;5.40;99.90;;;;;;14915392;23;20471;-85
2023/02/01 21:54:24;;;;;;;18.67;2.60;;;5.40;99.90;;;;;;14885006;23;20051;-84
2023/02/01 22:00:27;;;;;;;11.73;1.90;;;5.60;99.90;;;;;;14890474;23;20075;-86
2023/02/01 22:06:38;;;;;;;10.10;2.17;;;5.60;99.90;;;;;;14893443;23;20077;-86
2023/02/01 22:12:40;;;;;;;14.50;2.53;;;5.60;99.90;;;;;;14913253;23;20039;-87
2023/02/01 22:18:43;;;;;;;20.55;2.20;;;5.50;99.90;;;;;;14892093;23;20028;-86
2023/02/01 22:24:45;;;;;;;13.80;1.88;;;5.50;99.90;;;;;;14915816;23;20020;-86
2023/02/01 22:30:47;;;;;;;11.32;2.08;;;5.30;99.90;;;;;;14890143;23;20148;-85
2023/02/01 22:36:49;;;;;;;11.75;1.80;;;5.40;99.90;;;;;;14890479;23;20018;-86
2023/02/01 22:42:51;;;;;;;18.10;3.08;;;5.30;99.90;;;;;;14891653;23;20090;-85
2023/02/01 22:48:53;;;;;;;16.30;2.20;;;5.30;99.90;;;;;;14893575;23;20026;-85
2023/02/01 22:54:55;;;;;;;17.88;2.47;;;5.20;99.90;;;;;;14891567;23;20027;-85
2023/02/01 23:01:08;;;;;;;15.57;2.58;;;5.20;99.90;;;;;;14846402;23;20028;-85
2023/02/01 23:07:10;;;;;;;16.77;2.50;;;5.00;99.90;;;;;;14847848;24;20064;-86
2023/02/01 23:13:12;;;;;;;17.30;2.38;;;5.00;99.90;;;;;;14848770;23;20024;-85
2023/02/01 23:19:14;;;;;;;21.90;2.50;;;4.90;99.90;;;;;;14849087;24;20020;-86
2023/02/01 23:25:17;;;;;;;16.20;2.25;;;4.80;99.90;;;;;;14846078;23;20039;-86
2023/02/01 23:31:21;;;;;;;11.75;2.10;;;4.90;99.90;;;;;;14849448;23;20111;-87
2023/02/01 23:37:23;;;;;;;15.63;2.53;;;4.80;99.90;;;;;;14843794;23;20028;-87
2023/02/01 23:49:46;;;;;;;23.05;3.13;;;4.70;99.90;;;;;;14842410;24;20026;-86
2023/02/01 23:55:53;;;;;;;18.33;2.85;;;4.60;99.90;;;;;;14841099;23;20076;-85
